createdAt,value
2022-11-29T00:04:46.788Z,97584.88
2022-11-29T00:09:48.366Z,97591.34
2022-11-29T00:14:49.988Z,97588.69
2022-11-29T00:19:51.520Z,97592.59
2022-11-29T00:24:53.314Z,97589.47
2022-11-29T00:29:54.876Z,97586.63
2022-11-29T00:34:59.379Z,97581.78
2022-11-29T00:40:01.280Z,97588.94
2022-11-29T00:45:03.045Z,97584.06
2022-11-29T00:50:05.476Z,97577.59
2022-11-29T00:55:07.719Z,97581.91
2022-11-29T01:00:09.865Z,97578.41
2022-11-29T01:05:11.446Z,97586.38
2022-11-29T01:10:13.119Z,97590.44
2022-11-29T01:15:14.840Z,97587.06
2022-11-29T01:20:16.666Z,97594.47
2022-11-29T01:25:19.411Z,97591.75
2022-11-29T01:30:21.453Z,97589.63
2022-11-29T01:35:23.031Z,97591.66
2022-11-29T01:40:24.598Z,97590.97
2022-11-29T01:45:26.840Z,97592.59
2022-11-29T01:50:28.422Z,97594.34
2022-11-29T01:55:30.757Z,97589.63
2022-11-29T02:00:32.619Z,97589.63
2022-11-29T02:05:34.343Z,97589.06
2022-11-29T02:10:51.712Z,97594.44
2022-11-29T02:16:03.275Z,97589.31
2022-11-29T02:21:04.832Z,97599.34
2022-11-29T02:26:33.631Z,97595.00
2022-11-29T02:31:41.250Z,97597.41
2022-11-29T02:37:00.447Z,97600.81
2022-11-29T02:42:55.747Z,97602.84
2022-11-29T02:48:22.656Z,97604.88
2022-11-29T02:53:38.867Z,97605.53
2022-11-29T02:58:58.936Z,97604.75
2022-11-29T03:04:33.801Z,97607.16
2022-11-29T03:09:55.588Z,97608.53
2022-11-29T03:15:15.110Z,97614.22
2022-11-29T03:20:29.095Z,97610.44
2022-11-29T03:25:42.303Z,97616.00
2022-11-29T03:30:51.256Z,97609.63
2022-11-29T03:36:12.060Z,97616.78
2022-11-29T03:41:37.865Z,97626.13
2022-11-29T03:46:52.372Z,97631.56
2022-11-29T03:52:01.167Z,97623.44
2022-11-29T03:57:03.493Z,97625.19
2022-11-29T04:02:39.170Z,97623.69
2022-11-29T04:08:11.804Z,97628.00
2022-11-29T04:13:29.164Z,97628.00
2022-11-29T04:19:15.428Z,97632.88
2022-11-29T04:24:49.747Z,97633.56
2022-11-29T04:29:51.279Z,97635.59
2022-11-29T04:35:04.943Z,97639.53
2022-11-29T04:40:09.450Z,97646.69
2022-11-29T04:45:46.410Z,97638.44
2022-11-29T04:50:53.972Z,97647.78
2022-11-29T04:56:25.607Z,97649.13
2022-11-29T05:01:43.385Z,97651.56
2022-11-29T05:06:58.373Z,97652.50
2022-11-29T05:12:20.078Z,97656.16
2022-11-29T05:17:24.387Z,97654.78
2022-11-29T05:23:07.485Z,97664.00
2022-11-29T05:28:20.734Z,97665.91
2022-11-29T05:33:53.277Z,97674.84
2022-11-29T05:39:24.419Z,97673.91
2022-11-29T05:44:37.830Z,97677.56
2022-11-29T05:49:39.423Z,97682.31
2022-11-29T05:54:59.351Z,97680.84
2022-11-29T06:00:03.161Z,97678.66
2022-11-29T06:05:38.831Z,97685.69
2022-11-29T06:10:56.417Z,97697.34
2022-11-29T06:16:33.688Z,97698.84
2022-11-29T06:21:45.977Z,97710.63
2022-11-29T06:27:35.264Z,97711.59
2022-11-29T06:33:07.424Z,97711.72
2022-11-29T06:38:25.807Z,97715.22
2022-11-29T06:43:27.874Z,97719.16
2022-11-29T06:48:38.491Z,97728.09
2022-11-29T06:53:54.312Z,97731.09
2022-11-29T06:59:44.233Z,97726.75
2022-11-29T07:04:55.879Z,97734.19
2022-11-29T07:10:00.626Z,97734.06
2022-11-29T07:15:02.510Z,97738.91
2022-11-29T07:20:23.559Z,97746.63
2022-11-29T07:25:43.560Z,97751.13
2022-11-29T07:30:49.592Z,97749.50
2022-11-29T07:36:13.847Z,97758.56
2022-11-29T07:41:32.163Z,97768.03
2022-11-29T07:46:33.873Z,97765.59
2022-11-29T07:51:35.502Z,97768.84
2022-11-29T07:56:37.071Z,97768.69
2022-11-29T08:01:39.874Z,97777.22
2022-11-29T08:06:41.496Z,97783.16
2022-11-29T08:11:43.075Z,97782.31
2022-11-29T08:16:44.675Z,97785.06
2022-11-29T08:21:48.226Z,97794.53
2022-11-29T08:26:50.105Z,97795.91
2022-11-29T08:31:53.623Z,97795.63
2022-11-29T08:36:56.497Z,97801.03
2022-11-29T08:41:58.150Z,97805.09
2022-11-29T08:47:18.339Z,97804.16
2022-11-29T08:52:38.530Z,97805.13
2022-11-29T08:57:41.174Z,97805.78
2022-11-29T09:02:43.219Z,97812.41
2022-11-29T09:07:46.362Z,97820.78
2022-11-29T09:12:49.573Z,97823.97
2022-11-29T09:17:51.125Z,97827.03
2022-11-29T09:22:52.745Z,97830.38
2022-11-29T09:27:57.224Z,97833.69
2022-11-29T09:33:05.286Z,97831.78
2022-11-29T09:38:06.947Z,97831.47
2022-11-29T09:43:23.898Z,97841.75
2022-11-29T09:48:34.182Z,97831.47
2022-11-29T09:54:06.712Z,97837.75
2022-11-29T09:59:18.490Z,97846.28
2022-11-29T10:04:25.293Z,97840.19
2022-11-29T10:09:33.786Z,97847.47
2022-11-29T10:14:57.275Z,97839.69
2022-11-29T10:20:22.659Z,97846.44
2022-11-29T10:25:30.560Z,97847.19
2022-11-29T10:30:36.064Z,97841.56
2022-11-29T10:35:37.711Z,97841.91
2022-11-29T10:40:41.889Z,97847.38
2022-11-29T10:45:50.686Z,97847.81
2022-11-29T10:50:53.055Z,97847.28
2022-11-29T10:56:05.863Z,97848.34
2022-11-29T11:01:08.655Z,97847.13
2022-11-29T11:06:22.029Z,97850.13
2022-11-29T11:11:27.051Z,97860.00
2022-11-29T11:16:32.928Z,97856.63
2022-11-29T11:21:39.141Z,97852.63
2022-11-29T11:26:44.319Z,97850.84
2022-11-29T11:31:59.137Z,97859.19
2022-11-29T11:37:19.546Z,97863.41
2022-11-29T11:42:38.065Z,97858.72
2022-11-29T11:47:46.477Z,97868.03
2022-11-29T11:52:54.921Z,97861.56
2022-11-29T11:58:10.508Z,97871.88
2022-11-29T12:03:30.393Z,97866.47
2022-11-29T12:08:33.893Z,97866.34
2022-11-29T12:13:39.864Z,97873.81
2022-11-29T12:18:50.097Z,97878.72
2022-11-29T12:24:16.380Z,97879.56
2022-11-29T12:29:20.064Z,97889.16
2022-11-29T12:34:43.038Z,97887.38
2022-11-29T12:39:58.647Z,97886.50
2022-11-29T12:45:40.667Z,97889.09
2022-11-29T12:51:14.466Z,97890.66
2022-11-29T12:56:26.780Z,97890.22
2022-11-29T13:01:55.471Z,97896.25
2022-11-29T13:07:29.506Z,97907.50
2022-11-29T13:12:49.986Z,97907.91
2022-11-29T13:18:39.289Z,97907.34
2022-11-29T13:24:11.423Z,97900.94
2022-11-29T13:29:17.030Z,97902.72
2022-11-29T13:34:36.179Z,97912.44
2022-11-29T13:40:15.348Z,97918.00
2022-11-29T13:45:31.476Z,97920.66
2022-11-29T13:50:45.756Z,97921.41
2022-11-29T13:56:00.722Z,97930.91
2022-11-29T14:01:08.272Z,97934.56
2022-11-29T14:06:32.302Z,97930.16
2022-11-29T14:11:43.212Z,97933.59
2022-11-29T14:16:51.278Z,97936.38
2022-11-29T14:21:58.808Z,97930.69
2022-11-29T14:27:06.596Z,97939.25
2022-11-29T14:32:35.201Z,97937.81
2022-11-29T14:37:43.910Z,97938.91
2022-11-29T14:42:48.205Z,97938.66
2022-11-29T14:47:50.303Z,97945.44
2022-11-29T14:52:52.472Z,97954.25
2022-11-29T14:58:04.039Z,97955.94
2022-11-29T15:03:33.201Z,97956.47
2022-11-29T15:08:51.736Z,97946.44
2022-11-29T15:14:03.342Z,97962.59
2022-11-29T15:19:20.228Z,97968.56
2022-11-29T15:24:28.041Z,97960.31
2022-11-29T15:29:31.553Z,97978.88
2022-11-29T15:34:33.191Z,97980.09
2022-11-29T15:39:37.335Z,97984.84
2022-11-29T15:44:46.063Z,97981.75
2022-11-29T15:49:48.738Z,97989.34
2022-11-29T15:54:55.381Z,97995.06
2022-11-29T16:00:03.588Z,97997.63
2022-11-29T16:05:18.535Z,97998.59
2022-11-29T16:10:23.290Z,98005.91
2022-11-29T16:15:33.140Z,98014.88
2022-11-29T16:20:34.872Z,98009.03
2022-11-29T16:25:51.762Z,98016.22
2022-11-29T16:30:53.463Z,98016.34
2022-11-29T16:36:15.263Z,98028.19
2022-11-29T16:41:33.325Z,98031.69
2022-11-29T16:46:38.187Z,98041.47
2022-11-29T16:51:48.131Z,98038.47
2022-11-29T16:56:51.574Z,98046.47
2022-11-29T17:01:53.451Z,98047.03
2022-11-29T17:06:56.357Z,98047.28
2022-11-29T17:12:01.696Z,98053.16
2022-11-29T17:17:03.540Z,98056.13
2022-11-29T17:22:05.271Z,98063.97
2022-11-29T17:27:07.374Z,98063.72
2022-11-29T17:32:09.009Z,98063.44
2022-11-29T17:37:10.702Z,98065.28
2022-11-29T17:42:12.391Z,98067.63
2022-11-29T17:47:14.208Z,98079.69
2022-11-29T17:52:15.863Z,98095.81
2022-11-29T17:57:18.304Z,98086.88
2022-11-29T18:02:19.946Z,98092.00
2022-11-29T18:07:21.710Z,98091.88
2022-11-29T18:12:23.643Z,98092.53
2022-11-29T18:17:25.229Z,98094.16
2022-11-29T18:22:26.845Z,98095.22
2022-11-29T18:27:28.426Z,98098.41
2022-11-29T18:32:30.626Z,98100.84
2022-11-29T18:38:05.146Z,98101.13
2022-11-29T18:42:53.748Z,98090.78
2022-11-29T18:47:55.403Z,98093.22
2022-11-29T18:52:58.477Z,98108.00
2022-11-29T18:58:00.051Z,98107.72
2022-11-29T19:03:01.609Z,98105.44
2022-11-29T19:08:03.260Z,98103.66
2022-11-29T19:13:04.877Z,98107.88
2022-11-29T19:18:06.453Z,98111.50
2022-11-29T19:23:08.032Z,98117.91
2022-11-29T19:28:14.029Z,98114.97
2022-11-29T19:33:16.068Z,98120.13
2022-11-29T19:38:17.702Z,98117.25
2022-11-29T19:43:19.378Z,98124.97
2022-11-29T19:48:20.988Z,98134.22
2022-11-29T19:53:22.626Z,98133.94
2022-11-29T19:58:24.474Z,98133.09
2022-11-29T20:03:26.039Z,98135.41
2022-11-29T20:08:28.580Z,98132.88
2022-11-29T20:13:30.177Z,98141.03
2022-11-29T20:18:34.659Z,98139.75
2022-11-29T20:23:37.711Z,98148.19
2022-11-29T20:28:39.295Z,98146.06
2022-11-29T20:33:42.526Z,98148.06
2022-11-29T20:38:53.228Z,98149.56
2022-11-29T20:44:02.561Z,98154.34
2022-11-29T20:49:06.785Z,98156.03
2022-11-29T20:54:11.123Z,98158.84
2022-11-29T20:59:12.817Z,98161.16
2022-11-29T21:04:17.701Z,98162.84
2022-11-29T21:09:21.807Z,98171.47
2022-11-29T21:14:23.765Z,98168.09
2022-11-29T21:19:26.281Z,98167.19
2022-11-29T21:24:49.634Z,98169.56
2022-11-29T21:29:51.932Z,98167.66
2022-11-29T21:34:53.552Z,98171.28
2022-11-29T21:39:55.418Z,98176.16
2022-11-29T21:44:57.057Z,98177.00
2022-11-29T21:49:58.757Z,98179.25
2022-11-29T21:55:00.335Z,98178.66
2022-11-29T22:00:02.665Z,98175.72
2022-11-29T22:05:07.901Z,98177.69
2022-11-29T22:10:13.299Z,98169.38
2022-11-29T22:15:19.020Z,98168.84
2022-11-29T22:20:24.410Z,98170.56
2022-11-29T22:25:26.020Z,98171.97
2022-11-29T22:30:27.582Z,98169.00
2022-11-29T22:35:29.153Z,98163.78
2022-11-29T22:40:30.735Z,98166.13
2022-11-29T22:45:32.766Z,98170.28
2022-11-29T22:50:34.344Z,98175.19
2022-11-29T22:55:35.959Z,98186.47
2022-11-29T23:00:43.770Z,98193.13
2022-11-29T23:05:45.544Z,98193.00
2022-11-29T23:10:56.914Z,98185.66
2022-11-29T23:15:58.513Z,98196.84
2022-11-29T23:21:01.014Z,98193.69
2022-11-29T23:26:03.960Z,98194.47
2022-11-29T23:31:05.527Z,98201.69
2022-11-29T23:36:08.686Z,98202.25
2022-11-29T23:41:11.649Z,98199.16
2022-11-29T23:46:21.315Z,98194.69
2022-11-29T23:51:22.906Z,98199.91
2022-11-29T23:56:24.467Z,98192.19
